sensor_id;sensor_type;location;lat;lon;timestamp;pressure;altitude;pressure_sealevel;temperature;humidity
3250;BME280;1637;42.020;23.992;2023-03-20T00:00:30;93177.81;;;2.15;95.85
3250;BME280;1637;42.020;23.992;2023-03-20T00:02:58;93177.78;;;2.58;95.30
3250;BME280;1637;42.020;23.992;2023-03-20T00:05:25;93155.56;;;2.16;95.35
3250;BME280;1637;42.020;23.992;2023-03-20T00:07:55;93178.06;;;2.69;94.22
3250;BME280;1637;42.020;23.992;2023-03-20T00:10:29;93162.25;;;2.57;92.08
3250;BME280;1637;42.020;23.992;2023-03-20T00:12:58;93169.69;;;2.67;92.12
3250;BME280;1637;42.020;23.992;2023-03-20T00:15:29;93164.91;;;2.88;91.01
3250;BME280;1637;42.020;23.992;2023-03-20T00:17:57;93158.00;;;2.84;90.35
3250;BME280;1637;42.020;23.992;2023-03-20T00:20:24;93160.13;;;2.62;90.32
3250;BME280;1637;42.020;23.992;2023-03-20T00:22:51;93159.88;;;2.52;92.03
3250;BME280;1637;42.020;23.992;2023-03-20T00:25:20;93159.28;;;2.42;92.33
3250;BME280;1637;42.020;23.992;2023-03-20T00:27:49;93150.69;;;2.02;93.18
3250;BME280;1637;42.020;23.992;2023-03-20T00:30:25;93143.91;;;2.17;93.29
3250;BME280;1637;42.020;23.992;2023-03-20T00:32:53;93142.16;;;2.08;93.22
3250;BME280;1637;42.020;23.992;2023-03-20T00:35:25;93145.00;;;2.16;93.10
3250;BME280;1637;42.020;23.992;2023-03-20T00:37:55;93146.19;;;2.02;94.13
3250;BME280;1637;42.020;23.992;2023-03-20T00:40:26;93140.34;;;1.81;95.07
3250;BME280;1637;42.020;23.992;2023-03-20T00:42:58;93132.84;;;1.83;94.88
3250;BME280;1637;42.020;23.992;2023-03-20T00:45:27;93149.75;;;1.94;96.46
3250;BME280;1637;42.020;23.992;2023-03-20T00:47:56;93146.44;;;1.29;98.81
3250;BME280;1637;42.020;23.992;2023-03-20T00:50:24;93140.81;;;1.71;98.21
3250;BME280;1637;42.020;23.992;2023-03-20T00:52:52;93142.19;;;1.53;98.55
3250;BME280;1637;42.020;23.992;2023-03-20T00:55:21;93144.06;;;1.52;99.05
3250;BME280;1637;42.020;23.992;2023-03-20T00:57:50;93145.41;;;1.74;97.14
3250;BME280;1637;42.020;23.992;2023-03-20T01:00:33;93144.06;;;1.24;99.97
3250;BME280;1637;42.020;23.992;2023-03-20T01:03:02;93147.25;;;1.58;99.01
3250;BME280;1637;42.020;23.992;2023-03-20T01:05:35;93140.19;;;1.62;98.33
3250;BME280;1637;42.020;23.992;2023-03-20T01:08:01;93145.00;;;1.44;98.46
3250;BME280;1637;42.020;23.992;2023-03-20T01:10:30;93142.91;;;1.37;99.21
3250;BME280;1637;42.020;23.992;2023-03-20T01:12:59;93116.84;;;0.84;100.00
3250;BME280;1637;42.020;23.992;2023-03-20T01:15:30;93136.81;;;1.21;100.00
3250;BME280;1637;42.020;23.992;2023-03-20T01:17:58;93137.28;;;0.99;100.00
3250;BME280;1637;42.020;23.992;2023-03-20T01:20:26;93086.88;;;0.76;100.00
3250;BME280;1637;42.020;23.992;2023-03-20T01:22:54;93134.47;;;1.32;100.00
3250;BME280;1637;42.020;23.992;2023-03-20T01:25:21;93128.63;;;1.38;99.76
3250;BME280;1637;42.020;23.992;2023-03-20T01:27:50;93136.69;;;1.58;98.70
3250;BME280;1637;42.020;23.992;2023-03-20T01:30:20;93129.22;;;1.60;98.11
3250;BME280;1637;42.020;23.992;2023-03-20T01:32:48;93121.25;;;1.44;97.98
3250;BME280;1637;42.020;23.992;2023-03-20T01:35:17;93132.41;;;1.53;98.40
3250;BME280;1637;42.020;23.992;2023-03-20T01:37:46;93129.34;;;1.11;100.00
3250;BME280;1637;42.020;23.992;2023-03-20T01:40:21;93123.53;;;1.46;100.00
3250;BME280;1637;42.020;23.992;2023-03-20T01:42:52;93129.78;;;1.53;98.61
3250;BME280;1637;42.020;23.992;2023-03-20T01:45:23;93131.19;;;1.63;98.27
3250;BME280;1637;42.020;23.992;2023-03-20T01:47:53;93127.59;;;1.71;97.48
3250;BME280;1637;42.020;23.992;2023-03-20T01:50:26;93114.44;;;1.31;100.00
3250;BME280;1637;42.020;23.992;2023-03-20T01:52:59;93126.41;;;1.68;98.57
3250;BME280;1637;42.020;23.992;2023-03-20T01:55:28;93121.28;;;1.60;96.76
3250;BME280;1637;42.020;23.992;2023-03-20T01:57:57;93120.13;;;1.45;97.39
3250;BME280;1637;42.020;23.992;2023-03-20T02:00:25;93116.91;;;1.24;99.15
3250;BME280;1637;42.020;23.992;2023-03-20T02:02:53;93113.06;;;1.09;100.00
3250;BME280;1637;42.020;23.992;2023-03-20T02:05:21;93109.72;;;1.36;96.64
3250;BME280;1637;42.020;23.992;2023-03-20T02:07:55;93109.28;;;1.34;97.76
3250;BME280;1637;42.020;23.992;2023-03-20T02:10:24;93113.91;;;1.25;98.63
3250;BME280;1637;42.020;23.992;2023-03-20T02:12:51;93102.53;;;1.09;100.00
3250;BME280;1637;42.020;23.992;2023-03-20T02:15:19;93109.88;;;1.16;99.78
3250;BME280;1637;42.020;23.992;2023-03-20T02:17:46;93109.16;;;1.03;100.00
3250;BME280;1637;42.020;23.992;2023-03-20T02:20:21;93112.91;;;0.65;100.00
3250;BME280;1637;42.020;23.992;2023-03-20T02:23:24;93102.25;;;0.74;100.00
3250;BME280;1637;42.020;23.992;2023-03-20T02:26:11;93100.03;;;0.88;100.00
3250;BME280;1637;42.020;23.992;2023-03-20T02:32:05;93098.75;;;0.58;100.00
3250;BME280;1637;42.020;23.992;2023-03-20T02:35:07;93097.75;;;0.26;100.00
3250;BME280;1637;42.020;23.992;2023-03-20T02:37:55;93097.72;;;0.99;100.00
3250;BME280;1637;42.020;23.992;2023-03-20T02:40:32;93096.53;;;0.96;100.00
3250;BME280;1637;42.020;23.992;2023-03-20T02:43:03;93101.72;;;0.44;100.00
3250;BME280;1637;42.020;23.992;2023-03-20T02:45:43;93101.72;;;0.32;100.00
3250;BME280;1637;42.020;23.992;2023-03-20T02:48:15;93092.94;;;0.52;100.00
3250;BME280;1637;42.020;23.992;2023-03-20T02:50:48;93078.13;;;0.60;100.00
3250;BME280;1637;42.020;23.992;2023-03-20T02:53:30;93059.56;;;0.44;100.00
3250;BME280;1637;42.020;23.992;2023-03-20T02:56:04;93099.63;;;0.25;100.00
3250;BME280;1637;42.020;23.992;2023-03-20T02:58:41;93100.69;;;-0.12;100.00
3250;BME280;1637;42.020;23.992;2023-03-20T03:01:13;93072.84;;;0.11;100.00
3250;BME280;1637;42.020;23.992;2023-03-20T03:03:45;93098.53;;;0.51;100.00
3250;BME280;1637;42.020;23.992;2023-03-20T03:06:19;93097.09;;;0.78;100.00
3250;BME280;1637;42.020;23.992;2023-03-20T03:08:54;93095.00;;;0.71;100.00
3250;BME280;1637;42.020;23.992;2023-03-20T03:11:22;93098.44;;;0.59;100.00
3250;BME280;1637;42.020;23.992;2023-03-20T03:13:51;93097.66;;;0.22;100.00
3250;BME280;1637;42.020;23.992;2023-03-20T03:16:23;93086.47;;;0.38;100.00
3250;BME280;1637;42.020;23.992;2023-03-20T03:19:00;93096.47;;;0.56;100.00
3250;BME280;1637;42.020;23.992;2023-03-20T03:21:30;93097.31;;;0.73;100.00
3250;BME280;1637;42.020;23.992;2023-03-20T03:23:59;93097.66;;;0.10;100.00
3250;BME280;1637;42.020;23.992;2023-03-20T03:26:31;93094.81;;;0.52;100.00
3250;BME280;1637;42.020;23.992;2023-03-20T03:29:02;93076.69;;;0.14;100.00
3250;BME280;1637;42.020;23.992;2023-03-20T03:31:31;93092.06;;;0.24;100.00
3250;BME280;1637;42.020;23.992;2023-03-20T03:34:00;93098.81;;;0.00;100.00
3250;BME280;1637;42.020;23.992;2023-03-20T03:36:37;93098.19;;;0.28;100.00
3250;BME280;1637;42.020;23.992;2023-03-20T03:39:15;93096.09;;;-0.03;100.00
3250;BME280;1637;42.020;23.992;2023-03-20T03:41:49;93093.13;;;-0.02;100.00
3250;BME280;1637;42.020;23.992;2023-03-20T03:44:24;93093.34;;;-0.07;100.00
3250;BME280;1637;42.020;23.992;2023-03-20T03:46:53;93052.97;;;-0.23;100.00
3250;BME280;1637;42.020;23.992;2023-03-20T03:49:24;93092.25;;;0.07;100.00
3250;BME280;1637;42.020;23.992;2023-03-20T03:51:54;93097.00;;;0.38;100.00
3250;BME280;1637;42.020;23.992;2023-03-20T03:54:25;93097.13;;;0.41;100.00
3250;BME280;1637;42.020;23.992;2023-03-20T03:56:55;93104.47;;;0.48;100.00
3250;BME280;1637;42.020;23.992;2023-03-20T03:59:26;93101.03;;;0.23;100.00
3250;BME280;1637;42.020;23.992;2023-03-20T04:01:56;93100.50;;;0.29;100.00
3250;BME280;1637;42.020;23.992;2023-03-20T04:04:25;93097.06;;;-0.08;100.00
3250;BME280;1637;42.020;23.992;2023-03-20T04:06:53;93095.94;;;-0.19;100.00
3250;BME280;1637;42.020;23.992;2023-03-20T04:09:20;93093.78;;;0.08;100.00
3250;BME280;1637;42.020;23.992;2023-03-20T04:11:50;93097.75;;;0.14;100.00
3250;BME280;1637;42.020;23.992;2023-03-20T04:14:17;93062.09;;;-0.41;100.00
3250;BME280;1637;42.020;23.992;2023-03-20T04:16:45;93111.41;;;-0.17;100.00
3250;BME280;1637;42.020;23.992;2023-03-20T04:19:12;93085.88;;;-0.05;100.00
3250;BME280;1637;42.020;23.992;2023-03-20T04:21:39;93090.06;;;0.09;100.00
3250;BME280;1637;42.020;23.992;2023-03-20T04:24:06;93085.94;;;0.20;100.00
3250;BME280;1637;42.020;23.992;2023-03-20T04:26:33;93081.56;;;-0.66;100.00
3250;BME280;1637;42.020;23.992;2023-03-20T04:29:01;93089.25;;;-0.16;100.00
3250;BME280;1637;42.020;23.992;2023-03-20T04:31:28;92968.22;;;-1.40;100.00
3250;BME280;1637;42.020;23.992;2023-03-20T04:33:55;93086.75;;;-0.13;100.00
3250;BME280;1637;42.020;23.992;2023-03-20T04:36:22;93083.03;;;-0.12;100.00
3250;BME280;1637;42.020;23.992;2023-03-20T04:38:49;93091.28;;;-0.46;100.00
3250;BME280;1637;42.020;23.992;2023-03-20T04:41:16;93092.31;;;-0.26;100.00
3250;BME280;1637;42.020;23.992;2023-03-20T04:43:45;93087.06;;;-0.26;100.00
3250;BME280;1637;42.020;23.992;2023-03-20T04:46:13;93087.34;;;0.17;100.00
3250;BME280;1637;42.020;23.992;2023-03-20T04:48:40;93087.06;;;0.83;100.00
3250;BME280;1637;42.020;23.992;2023-03-20T04:51:07;93094.16;;;1.19;97.69
3250;BME280;1637;42.020;23.992;2023-03-20T04:53:34;93093.28;;;1.71;92.64
3250;BME280;1637;42.020;23.992;2023-03-20T04:56:01;93093.06;;;1.92;90.03
3250;BME280;1637;42.020;23.992;2023-03-20T04:58:27;93097.19;;;2.21;88.10
3250;BME280;1637;42.020;23.992;2023-03-20T05:00:54;93096.09;;;2.22;88.96
3250;BME280;1637;42.020;23.992;2023-03-20T05:03:22;93104.41;;;2.71;86.31
3250;BME280;1637;42.020;23.992;2023-03-20T05:05:49;93103.13;;;3.16;84.30
3250;BME280;1637;42.020;23.992;2023-03-20T05:08:16;93108.09;;;3.56;82.51
3250;BME280;1637;42.020;23.992;2023-03-20T05:10:43;93112.75;;;4.01;80.12
3250;BME280;1637;42.020;23.992;2023-03-20T05:13:10;93112.22;;;5.09;76.95
3250;BME280;1637;42.020;23.992;2023-03-20T05:15:37;93112.03;;;5.51;75.28
3250;BME280;1637;42.020;23.992;2023-03-20T05:18:04;93116.31;;;6.23;76.06
3250;BME280;1637;42.020;23.992;2023-03-20T05:20:32;93119.81;;;6.78;73.82
3250;BME280;1637;42.020;23.992;2023-03-20T05:22:59;93057.88;;;6.34;70.10
3250;BME280;1637;42.020;23.992;2023-03-20T05:25:25;93128.38;;;7.64;67.20
3250;BME280;1637;42.020;23.992;2023-03-20T05:27:53;93124.91;;;7.56;64.45
3250;BME280;1637;42.020;23.992;2023-03-20T05:30:20;93120.56;;;7.30;64.92
3250;BME280;1637;42.020;23.992;2023-03-20T05:32:48;93120.91;;;6.70;68.18
3250;BME280;1637;42.020;23.992;2023-03-20T05:35:16;93117.34;;;6.55;68.89
3250;BME280;1637;42.020;23.992;2023-03-20T05:37:45;93129.91;;;6.55;68.09
3250;BME280;1637;42.020;23.992;2023-03-20T05:40:13;93121.38;;;6.39;69.21
3250;BME280;1637;42.020;23.992;2023-03-20T05:42:40;93125.69;;;6.98;66.67
3250;BME280;1637;42.020;23.992;2023-03-20T05:45:08;93126.94;;;6.27;68.87
3250;BME280;1637;42.020;23.992;2023-03-20T05:47:35;93120.84;;;6.63;69.30
3250;BME280;1637;42.020;23.992;2023-03-20T05:50:02;93113.91;;;6.99;67.27
3250;BME280;1637;42.020;23.992;2023-03-20T05:52:29;93118.25;;;7.29;66.70
3250;BME280;1637;42.020;23.992;2023-03-20T05:54:57;93114.31;;;7.74;64.75
3250;BME280;1637;42.020;23.992;2023-03-20T05:57:24;93129.06;;;8.40;62.53
3250;BME280;1637;42.020;23.992;2023-03-20T05:59:51;93130.53;;;8.27;62.79
3250;BME280;1637;42.020;23.992;2023-03-20T06:02:18;93115.44;;;7.69;64.94
3250;BME280;1637;42.020;23.992;2023-03-20T06:04:45;93120.53;;;7.99;63.45
3250;BME280;1637;42.020;23.992;2023-03-20T06:07:12;93114.97;;;8.50;62.46
3250;BME280;1637;42.020;23.992;2023-03-20T06:09:38;93114.97;;;8.47;61.99
3250;BME280;1637;42.020;23.992;2023-03-20T06:12:07;93122.59;;;9.16;60.59
3250;BME280;1637;42.020;23.992;2023-03-20T06:14:34;93134.03;;;9.55;59.39
3250;BME280;1637;42.020;23.992;2023-03-20T06:17:00;93123.25;;;9.84;58.91
3250;BME280;1637;42.020;23.992;2023-03-20T06:19:27;93122.16;;;9.56;58.43
3250;BME280;1637;42.020;23.992;2023-03-20T06:21:54;93116.00;;;9.81;58.14
3250;BME280;1637;42.020;23.992;2023-03-20T06:24:21;93110.91;;;10.11;56.67
3250;BME280;1637;42.020;23.992;2023-03-20T06:26:48;93119.09;;;9.76;58.38
3250;BME280;1637;42.020;23.992;2023-03-20T06:29:16;93107.88;;;10.06;57.75
3250;BME280;1637;42.020;23.992;2023-03-20T06:31:43;93109.38;;;10.17;58.32
3250;BME280;1637;42.020;23.992;2023-03-20T06:34:10;93107.63;;;11.11;54.64
3250;BME280;1637;42.020;23.992;2023-03-20T06:36:37;93099.22;;;10.57;56.03
3250;BME280;1637;42.020;23.992;2023-03-20T06:39:04;93100.50;;;10.93;55.87
3250;BME280;1637;42.020;23.992;2023-03-20T06:41:32;93100.25;;;10.74;56.25
3250;BME280;1637;42.020;23.992;2023-03-20T06:43:58;93104.88;;;11.18;55.37
3250;BME280;1637;42.020;23.992;2023-03-20T06:46:27;93105.34;;;12.22;52.38
3250;BME280;1637;42.020;23.992;2023-03-20T06:48:54;93110.59;;;12.02;53.19
3250;BME280;1637;42.020;23.992;2023-03-20T06:51:20;93103.69;;;12.01;53.19
3250;BME280;1637;42.020;23.992;2023-03-20T06:53:47;93108.69;;;12.29;52.58
3250;BME280;1637;42.020;23.992;2023-03-20T06:56:14;93105.88;;;12.40;51.97
3250;BME280;1637;42.020;23.992;2023-03-20T06:58:41;93109.38;;;12.91;50.72
3250;BME280;1637;42.020;23.992;2023-03-20T07:01:09;93105.53;;;12.65;51.02
3250;BME280;1637;42.020;23.992;2023-03-20T07:03:39;93101.22;;;12.98;50.71
3250;BME280;1637;42.020;23.992;2023-03-20T07:06:06;93075.00;;;13.29;50.00
3250;BME280;1637;42.020;23.992;2023-03-20T07:08:33;93089.91;;;13.33;50.36
3250;BME280;1637;42.020;23.992;2023-03-20T07:11:01;93109.16;;;14.15;48.56
3250;BME280;1637;42.020;23.992;2023-03-20T07:13:28;93104.94;;;13.94;48.86
3250;BME280;1637;42.020;23.992;2023-03-20T07:15:55;93096.81;;;13.77;49.61
3250;BME280;1637;42.020;23.992;2023-03-20T07:18:22;93108.47;;;13.71;50.02
3250;BME280;1637;42.020;23.992;2023-03-20T07:20:52;93104.59;;;13.72;49.13
3250;BME280;1637;42.020;23.992;2023-03-20T07:23:19;93100.06;;;13.89;49.69
3250;BME280;1637;42.020;23.992;2023-03-20T07:25:45;93095.16;;;13.84;50.30
3250;BME280;1637;42.020;23.992;2023-03-20T07:28:12;93092.38;;;14.83;47.77
3250;BME280;1637;42.020;23.992;2023-03-20T07:30:39;93088.41;;;14.87;46.93
3250;BME280;1637;42.020;23.992;2023-03-20T07:33:06;93080.03;;;14.29;47.95
3250;BME280;1637;42.020;23.992;2023-03-20T07:35:33;93083.22;;;14.96;46.99
3250;BME280;1637;42.020;23.992;2023-03-20T07:38:02;93084.94;;;15.97;44.63
3250;BME280;1637;42.020;23.992;2023-03-20T07:40:29;93079.91;;;15.82;45.13
3250;BME280;1637;42.020;23.992;2023-03-20T07:42:56;93078.56;;;15.29;46.42
3250;BME280;1637;42.020;23.992;2023-03-20T07:45:23;93073.47;;;15.64;44.59
3250;BME280;1637;42.020;23.992;2023-03-20T07:47:50;93090.19;;;16.96;42.57
3250;BME280;1637;42.020;23.992;2023-03-20T07:50:17;93082.16;;;16.55;43.27
3250;BME280;1637;42.020;23.992;2023-03-20T07:52:45;93075.53;;;16.43;43.87
3250;BME280;1637;42.020;23.992;2023-03-20T11:22:23;92833.31;;;21.86;24.10
3250;BME280;1637;42.020;23.992;2023-03-20T11:24:53;92835.22;;;20.50;24.93
3250;BME280;1637;42.020;23.992;2023-03-20T11:27:25;92832.34;;;21.16;24.29
3250;BME280;1637;42.020;23.992;2023-03-20T11:29:54;92829.75;;;21.66;23.81
3250;BME280;1637;42.020;23.992;2023-03-20T11:32:27;92830.44;;;21.60;23.96
3250;BME280;1637;42.020;23.992;2023-03-20T11:34:56;92834.00;;;22.11;23.45
3250;BME280;1637;42.020;23.992;2023-03-20T11:37:42;92816.59;;;22.08;23.50
3250;BME280;1637;42.020;23.992;2023-03-20T11:40:14;92794.75;;;21.05;25.44
3250;BME280;1637;42.020;23.992;2023-03-20T11:42:51;92812.47;;;21.54;24.34
3250;BME280;1637;42.020;23.992;2023-03-20T11:45:18;92799.06;;;20.97;25.58
3250;BME280;1637;42.020;23.992;2023-03-20T11:47:49;92816.59;;;21.35;24.82
3250;BME280;1637;42.020;23.992;2023-03-20T11:50:35;92808.72;;;21.37;24.63
3250;BME280;1637;42.020;23.992;2023-03-20T11:53:21;92808.22;;;21.82;24.59
3250;BME280;1637;42.020;23.992;2023-03-20T11:56:02;92810.03;;;22.00;24.66
3250;BME280;1637;42.020;23.992;2023-03-20T11:58:31;92803.69;;;22.09;24.20
3250;BME280;1637;42.020;23.992;2023-03-20T12:01:00;92802.66;;;22.06;24.63
3250;BME280;1637;42.020;23.992;2023-03-20T12:03:38;92805.38;;;22.21;24.26
3250;BME280;1637;42.020;23.992;2023-03-20T12:06:08;92805.31;;;21.42;25.62
3250;BME280;1637;42.020;23.992;2023-03-20T12:08:41;92793.09;;;21.67;26.08
3250;BME280;1637;42.020;23.992;2023-03-20T12:11:20;92791.38;;;21.99;27.41
3250;BME280;1637;42.020;23.992;2023-03-20T12:13:51;92790.84;;;22.29;26.44
3250;BME280;1637;42.020;23.992;2023-03-20T12:16:20;92763.09;;;21.96;24.55
3250;BME280;1637;42.020;23.992;2023-03-20T12:18:51;92791.00;;;21.91;24.66
3250;BME280;1637;42.020;23.992;2023-03-20T12:21:23;92791.59;;;21.80;24.77
3250;BME280;1637;42.020;23.992;2023-03-20T12:23:57;92786.13;;;21.95;24.78
3250;BME280;1637;42.020;23.992;2023-03-20T12:26:31;92786.53;;;22.03;25.27
3250;BME280;1637;42.020;23.992;2023-03-20T12:29:03;92785.19;;;21.98;25.15
3250;BME280;1637;42.020;23.992;2023-03-20T12:31:35;92750.09;;;21.56;26.03
3250;BME280;1637;42.020;23.992;2023-03-20T12:34:08;92781.41;;;21.95;25.41
3250;BME280;1637;42.020;23.992;2023-03-20T12:36:38;92773.34;;;21.86;25.80
3250;BME280;1637;42.020;23.992;2023-03-20T12:39:12;92772.88;;;21.88;25.92
3250;BME280;1637;42.020;23.992;2023-03-20T12:41:47;92781.81;;;21.88;25.49
3250;BME280;1637;42.020;23.992;2023-03-20T12:44:24;92773.91;;;21.90;25.71
3250;BME280;1637;42.020;23.992;2023-03-20T12:47:01;92776.63;;;21.90;25.59
3250;BME280;1637;42.020;23.992;2023-03-20T12:49:39;92781.34;;;21.75;25.29
3250;BME280;1637;42.020;23.992;2023-03-20T12:52:14;92759.28;;;21.44;25.64
3250;BME280;1637;42.020;23.992;2023-03-20T12:54:58;92778.25;;;21.68;25.17
3250;BME280;1637;42.020;23.992;2023-03-20T12:57:32;92780.25;;;21.38;25.27
3250;BME280;1637;42.020;23.992;2023-03-20T13:00:13;92770.72;;;21.63;25.36
3250;BME280;1637;42.020;23.992;2023-03-20T13:02:48;92769.22;;;21.76;25.04
3250;BME280;1637;42.020;23.992;2023-03-20T13:05:25;92773.47;;;21.48;26.10
3250;BME280;1637;42.020;23.992;2023-03-20T13:08:09;92778.75;;;21.37;25.89
3250;BME280;1637;42.020;23.992;2023-03-20T13:10:46;92773.94;;;21.32;26.51
3250;BME280;1637;42.020;23.992;2023-03-20T13:13:19;92769.16;;;20.88;26.96
3250;BME280;1637;42.020;23.992;2023-03-20T13:16:02;92727.31;;;21.00;25.86
3250;BME280;1637;42.020;23.992;2023-03-20T13:18:39;92755.31;;;21.74;26.14
3250;BME280;1637;42.020;23.992;2023-03-20T13:21:13;92754.00;;;21.70;26.12
3250;BME280;1637;42.020;23.992;2023-03-20T13:23:45;92753.75;;;21.53;26.44
3250;BME280;1637;42.020;23.992;2023-03-20T13:26:27;92753.84;;;21.29;26.36
3250;BME280;1637;42.020;23.992;2023-03-20T13:29:01;92744.72;;;21.17;26.91
3250;BME280;1637;42.020;23.992;2023-03-20T13:31:40;92750.16;;;21.17;27.07
3250;BME280;1637;42.020;23.992;2023-03-20T13:34:20;92745.72;;;20.90;27.11
3250;BME280;1637;42.020;23.992;2023-03-20T13:36:58;92743.13;;;21.25;27.01
3250;BME280;1637;42.020;23.992;2023-03-20T13:39:32;92742.63;;;21.12;26.97
3250;BME280;1637;42.020;23.992;2023-03-20T13:42:05;92744.34;;;21.24;27.24
3250;BME280;1637;42.020;23.992;2023-03-20T13:44:35;92725.66;;;21.32;28.14
3250;BME280;1637;42.020;23.992;2023-03-20T13:47:05;92718.72;;;21.31;27.92
3250;BME280;1637;42.020;23.992;2023-03-20T13:49:37;92713.91;;;20.97;27.23
3250;BME280;1637;42.020;23.992;2023-03-20T13:52:07;92738.03;;;21.18;27.91
3250;BME280;1637;42.020;23.992;2023-03-20T13:54:46;92728.06;;;20.86;27.72
3250;BME280;1637;42.020;23.992;2023-03-20T13:57:27;92728.44;;;20.93;28.42
3250;BME280;1637;42.020;23.992;2023-03-20T14:00:02;92727.13;;;20.89;28.67
3250;BME280;1637;42.020;23.992;2023-03-20T14:02:49;92716.69;;;20.87;28.13
3250;BME280;1637;42.020;23.992;2023-03-20T14:05:21;92718.13;;;20.98;28.20
3250;BME280;1637;42.020;23.992;2023-03-20T14:07:54;92705.09;;;20.48;28.73
3250;BME280;1637;42.020;23.992;2023-03-20T14:10:37;92703.59;;;20.47;28.82
3250;BME280;1637;42.020;23.992;2023-03-20T14:13:13;92701.66;;;20.39;29.09
3250;BME280;1637;42.020;23.992;2023-03-20T14:15:51;92703.06;;;20.34;29.09
3250;BME280;1637;42.020;23.992;2023-03-20T14:18:21;92702.53;;;20.45;29.36
3250;BME280;1637;42.020;23.992;2023-03-20T14:20:54;92712.56;;;20.39;29.00
3250;BME280;1637;42.020;23.992;2023-03-20T14:23:31;92742.22;;;20.37;29.34
3250;BME280;1637;42.020;23.992;2023-03-20T14:25:59;92736.16;;;20.33;29.15
3250;BME280;1637;42.020;23.992;2023-03-20T14:28:44;92667.47;;;19.99;29.67
3250;BME280;1637;42.020;23.992;2023-03-20T14:31:19;92704.63;;;20.26;29.06
3250;BME280;1637;42.020;23.992;2023-03-20T14:33:53;92691.06;;;20.17;29.00
3250;BME280;1637;42.020;23.992;2023-03-20T14:36:21;92705.25;;;20.21;29.29
3250;BME280;1637;42.020;23.992;2023-03-20T14:38:54;92698.59;;;20.22;29.64
3250;BME280;1637;42.020;23.992;2023-03-20T14:41:29;92705.91;;;20.16;29.49
3250;BME280;1637;42.020;23.992;2023-03-20T14:44:12;92703.53;;;20.09;29.71
3250;BME280;1637;42.020;23.992;2023-03-20T14:46:48;92706.41;;;20.05;29.10
3250;BME280;1637;42.020;23.992;2023-03-20T14:49:33;92694.44;;;19.88;29.18
3250;BME280;1637;42.020;23.992;2023-03-20T14:52:26;92687.84;;;19.80;29.68
3250;BME280;1637;42.020;23.992;2023-03-20T14:55:13;92699.91;;;19.79;29.48
3250;BME280;1637;42.020;23.992;2023-03-20T14:57:41;92689.13;;;19.61;29.47
3250;BME280;1637;42.020;23.992;2023-03-20T15:00:18;92669.28;;;19.36;29.45
3250;BME280;1637;42.020;23.992;2023-03-20T15:02:48;92688.28;;;19.45;30.25
3250;BME280;1637;42.020;23.992;2023-03-20T15:05:22;92691.00;;;19.45;30.09
3250;BME280;1637;42.020;23.992;2023-03-20T15:07:51;92694.16;;;19.44;29.32
3250;BME280;1637;42.020;23.992;2023-03-20T15:10:18;92700.53;;;19.41;29.72
3250;BME280;1637;42.020;23.992;2023-03-20T15:12:45;92695.88;;;19.32;29.83
3250;BME280;1637;42.020;23.992;2023-03-20T15:15:25;92695.47;;;19.15;29.62
3250;BME280;1637;42.020;23.992;2023-03-20T15:17:52;92697.00;;;19.07;28.74
3250;BME280;1637;42.020;23.992;2023-03-20T15:20:20;92696.56;;;19.09;28.42
3250;BME280;1637;42.020;23.992;2023-03-20T15:22:49;92706.69;;;18.99;28.69
3250;BME280;1637;42.020;23.992;2023-03-20T15:25:16;92670.22;;;18.82;28.24
3250;BME280;1637;42.020;23.992;2023-03-20T15:27:44;92704.41;;;18.98;28.06
3250;BME280;1637;42.020;23.992;2023-03-20T15:30:14;92701.25;;;18.99;28.24
3250;BME280;1637;42.020;23.992;2023-03-20T15:32:43;92702.47;;;18.98;28.37
3250;BME280;1637;42.020;23.992;2023-03-20T15:35:13;92718.16;;;18.85;28.53
3250;BME280;1637;42.020;23.992;2023-03-20T15:37:46;92705.69;;;18.69;28.77
3250;BME280;1637;42.020;23.992;2023-03-20T15:40:21;92710.38;;;18.69;28.46
3250;BME280;1637;42.020;23.992;2023-03-20T15:42:52;92713.03;;;18.78;28.85
3250;BME280;1637;42.020;23.992;2023-03-20T15:45:24;92708.53;;;18.75;28.91
3250;BME280;1637;42.020;23.992;2023-03-20T15:47:59;92714.84;;;18.72;29.57
3250;BME280;1637;42.020;23.992;2023-03-20T15:50:30;92716.25;;;18.67;30.44
3250;BME280;1637;42.020;23.992;2023-03-20T15:52:58;92721.63;;;18.76;30.04
3250;BME280;1637;42.020;23.992;2023-03-20T15:55:25;92722.53;;;18.73;30.44
3250;BME280;1637;42.020;23.992;2023-03-20T15:57:55;92727.84;;;18.68;32.45
3250;BME280;1637;42.020;23.992;2023-03-20T16:00:26;92732.00;;;18.50;30.37
3250;BME280;1637;42.020;23.992;2023-03-20T16:02:55;92729.50;;;18.65;30.26
3250;BME280;1637;42.020;23.992;2023-03-20T16:05:25;92723.88;;;18.50;31.69
3250;BME280;1637;42.020;23.992;2023-03-20T16:07:53;92721.47;;;18.34;31.64
3250;BME280;1637;42.020;23.992;2023-03-20T16:10:27;92723.56;;;18.12;32.09
3250;BME280;1637;42.020;23.992;2023-03-20T16:12:54;92727.03;;;18.22;31.31
3250;BME280;1637;42.020;23.992;2023-03-20T16:15:23;92727.91;;;18.00;31.33
3250;BME280;1637;42.020;23.992;2023-03-20T16:17:55;92722.63;;;17.97;31.30
3250;BME280;1637;42.020;23.992;2023-03-20T16:20:27;92716.59;;;17.43;31.65
3250;BME280;1637;42.020;23.992;2023-03-20T16:22:58;92731.09;;;17.59;31.73
3250;BME280;1637;42.020;23.992;2023-03-20T16:25:26;92734.47;;;17.72;32.06
3250;BME280;1637;42.020;23.992;2023-03-20T16:27:53;92731.94;;;17.77;31.86
3250;BME280;1637;42.020;23.992;2023-03-20T16:30:23;92729.97;;;17.47;33.20
3250;BME280;1637;42.020;23.992;2023-03-20T16:32:55;92735.00;;;16.96;36.68
3250;BME280;1637;42.020;23.992;2023-03-20T16:35:28;92708.06;;;16.48;36.99
3250;BME280;1637;42.020;23.992;2023-03-20T16:37:57;92754.38;;;16.72;36.15
3250;BME280;1637;42.020;23.992;2023-03-20T16:40:29;92740.31;;;16.77;36.30
3250;BME280;1637;42.020;23.992;2023-03-20T16:43:04;92746.47;;;16.78;36.36
3250;BME280;1637;42.020;23.992;2023-03-20T16:45:33;92760.22;;;16.93;36.77
3250;BME280;1637;42.020;23.992;2023-03-20T16:48:31;92768.41;;;16.45;37.79
3250;BME280;1637;42.020;23.992;2023-03-20T16:51:01;92758.41;;;15.99;38.63
3250;BME280;1637;42.020;23.992;2023-03-20T16:53:40;92766.22;;;15.71;40.55
3250;BME280;1637;42.020;23.992;2023-03-20T16:56:10;92748.44;;;15.20;40.71
3250;BME280;1637;42.020;23.992;2023-03-20T16:58:37;92748.88;;;15.05;41.09
3250;BME280;1637;42.020;23.992;2023-03-20T17:01:09;92758.81;;;15.08;43.53
3250;BME280;1637;42.020;23.992;2023-03-20T17:03:46;92760.34;;;15.47;41.40